Time;durP1;ratioP1;P1;durP2;ratioP2;P2;SDS_P1;SDS_P2;PMS_P1;PMS_P2;Temp;Humidity;BMP_temperature;BMP_pressure;BME280_temperature;BME280_humidity;BME280_pressure;Samples;Min_cycle;Max_cycle;Signal;HPM_P1;HPM_P2
2022/05/21 04:55:19;;;;;;;4.30;3.40;;;;;;;17.02;77.12;99261.23;126015;1309;636373;-73
2022/05/21 04:58:25;;;;;;;3.30;3.00;;;;;;;16.96;76.44;99261.82;129288;1281;108820;-72
2022/05/21 05:01:31;;;;;;;5.30;3.60;;;;;;;16.98;76.72;99268.86;129274;1281;108882;-73
2022/05/21 05:04:37;;;;;;;3.80;3.20;;;;;;;17.03;77.76;99270.02;129149;1281;108983;-74
2022/05/21 05:07:42;;;;;;;3.90;3.10;;;;;;;17.08;77.25;99272.55;128996;1278;246072;-72
2022/05/21 05:10:48;;;;;;;4.20;3.80;;;;;;;17.18;76.79;99276.52;129982;1274;108848;-73
2022/05/21 05:13:54;;;;;;;4.60;4.20;;;;;;;17.30;77.20;99282.36;129786;1274;108921;-72
2022/05/21 05:17:00;;;;;;;5.40;4.90;;;;;;;17.41;77.31;99282.48;129858;1274;108564;-73
2022/05/21 05:20:07;;;;;;;6.20;5.60;;;;;;;17.54;77.28;99284.63;129878;1274;107739;-74
2022/05/21 05:23:13;;;;;;;7.00;5.80;;;;;;;17.68;77.77;99284.00;129796;1274;108929;-71
2022/05/21 05:26:19;;;;;;;6.20;5.60;;;;;;;17.69;78.16;99287.34;129749;1274;108712;-72
2022/05/21 05:29:25;;;;;;;6.80;6.10;;;;;;;17.72;78.03;99293.08;130465;1267;108605;-73
2022/05/21 05:32:30;;;;;;;9.30;6.80;;;;;;;17.72;78.34;99294.00;130788;1268;108675;-73
2022/05/21 05:35:36;;;;;;;6.60;6.00;;;;;;;17.68;78.11;99289.89;130427;1267;108558;-72
2022/05/21 05:38:41;;;;;;;19.90;15.40;;;;;;;17.69;77.99;99289.48;130366;1267;108712;-75
2022/05/21 05:41:47;;;;;;;24.90;20.20;;;;;;;17.72;78.29;99294.23;130350;1268;107709;-75
2022/05/21 05:44:52;;;;;;;25.00;20.30;;;;;;;17.76;78.42;99298.02;130465;1267;108717;-75
2022/05/21 05:47:57;;;;;;;20.10;15.40;;;;;;;17.69;78.92;99298.30;130497;1268;109291;-75
2022/05/21 05:51:04;;;;;;;19.80;16.70;;;;;;;17.63;79.33;99302.96;130509;1268;108652;-75
2022/05/21 05:54:09;;;;;;;8.50;7.70;;;;;;;17.56;78.27;99310.42;130496;1268;107674;-76
2022/05/21 05:57:15;;;;;;;7.80;7.00;;;;;;;17.53;77.42;99325.84;130444;1266;108729;-79
2022/05/21 06:00:21;;;;;;;8.10;6.00;;;;;;;17.48;77.08;99343.02;130402;1267;107285;-77
2022/05/21 06:03:27;;;;;;;5.40;3.70;;;;;;;17.44;76.43;99354.05;130361;1268;108702;-74
2022/05/21 06:06:33;;;;;;;4.60;2.80;;;;;;;17.60;75.56;99370.48;130338;1267;108955;-74
2022/05/21 06:09:38;;;;;;;4.20;2.60;;;;;;;17.68;74.58;99384.77;130320;1267;108814;-74
2022/05/21 06:12:44;;;;;;;5.40;1.90;;;;;;;17.56;72.11;99393.59;130372;1268;108748;-80
2022/05/21 06:15:49;;;;;;;6.30;2.90;;;;;;;17.25;71.89;99395.30;130475;1267;108860;-80
2022/05/21 06:18:55;;;;;;;2.40;1.90;;;;;;;17.24;72.69;99393.15;130392;1268;108579;-77
2022/05/21 06:22:02;;;;;;;4.80;2.40;;;;;;;17.28;72.85;99395.65;130304;1268;108759;-83
2022/05/21 06:25:09;;;;;;;4.20;1.50;;;;;;;17.35;72.45;99398.18;130447;1268;108674;-79
2022/05/21 06:28:15;;;;;;;3.70;1.60;;;;;;;17.39;71.86;99398.36;130487;1268;108954;-78
2022/05/21 06:31:21;;;;;;;1.40;1.30;;;;;;;17.33;70.10;99413.50;130375;1268;108384;-76
2022/05/21 06:34:27;;;;;;;3.50;1.30;;;;;;;17.36;70.07;99416.77;130348;1267;107292;-76
2022/05/21 06:37:33;;;;;;;3.20;1.60;;;;;;;17.44;68.57;99416.12;130310;1268;109026;-77
2022/05/21 06:40:38;;;;;;;4.30;1.40;;;;;;;17.29;67.78;99420.70;130291;1267;108865;-79
2022/05/21 06:43:43;;;;;;;2.50;1.40;;;;;;;17.29;68.65;99420.36;130404;1268;108890;-78
2022/05/21 06:46:49;;;;;;;3.90;1.30;;;;;;;17.25;68.89;99418.94;130253;1268;107870;-78
2022/05/21 06:49:56;;;;;;;1.40;1.10;;;;;;;17.13;68.55;99424.36;130179;1268;108668;-77
2022/05/21 06:53:02;;;;;;;5.00;1.10;;;;;;;17.06;68.36;99431.92;130348;1268;108991;-80
2022/05/21 06:56:12;;;;;;;4.40;1.30;;;;;;;17.02;68.93;99443.64;130511;1267;108979;-75
2022/05/21 06:59:19;;;;;;;2.40;1.20;;;;;;;17.01;67.71;99451.10;130257;1268;108414;-77
2022/05/21 07:02:24;;;;;;;5.50;1.00;;;;;;;17.06;66.97;99453.63;130382;1268;109118;-76
2022/05/21 07:08:54;;;;;;;2.00;0.70;;;;;;;17.04;64.59;99477.62;130510;1268;108783;-80
2022/05/21 07:12:01;;;;;;;4.70;0.90;;;;;;;16.92;63.47;99481.64;130330;1268;108771;-76
2022/05/21 07:15:08;;;;;;;1.80;0.70;;;;;;;16.81;62.86;99485.65;130384;1268;108671;-81
2022/05/21 07:18:16;;;;;;;6.50;0.70;;;;;;;16.74;62.94;99481.93;130350;1268;108455;-81
2022/05/21 07:21:21;;;;;;;6.60;1.00;;;;;;;16.73;62.88;99492.50;130390;1267;109110;-79
2022/05/21 07:24:27;;;;;;;3.50;0.80;;;;;;;16.74;63.01;99493.37;130428;1267;108162;-77
2022/05/21 07:27:32;;;;;;;4.00;1.10;;;;;;;16.72;61.79;99509.00;130311;1268;108674;-76
2022/05/21 07:30:40;;;;;;;5.60;1.00;;;;;;;16.68;59.98;99508.05;130309;1268;108712;-80
2022/05/21 07:33:46;;;;;;;2.90;1.20;;;;;;;16.71;60.93;99514.30;130442;1268;108667;-81
2022/05/21 07:36:51;;;;;;;3.10;0.90;;;;;;;16.78;60.67;99507.45;130359;1268;108687;-82
2022/05/21 07:39:57;;;;;;;4.20;1.30;;;;;;;16.93;61.14;99520.45;130487;1268;109023;-82
2022/05/21 07:43:11;;;;;;;2.70;0.80;;;;;;;16.93;58.73;99527.45;130593;1268;108703;-83
2022/05/21 07:46:17;;;;;;;5.20;1.20;;;;;;;16.88;59.33;99532.41;130471;1267;108032;-80
2022/05/21 07:49:23;;;;;;;2.30;0.80;;;;;;;17.02;59.66;99532.56;130377;1267;108917;-82
2022/05/21 07:52:30;;;;;;;2.40;0.80;;;;;;;17.31;59.20;99532.39;130379;1268;108826;-83
2022/05/21 07:55:35;;;;;;;5.30;1.10;;;;;;;17.41;57.92;99524.89;130322;1268;108896;-84
2022/05/21 07:58:42;;;;;;;4.20;0.90;;;;;;;17.35;57.10;99530.59;130367;1268;108563;-82
2022/05/21 08:01:48;;;;;;;3.00;1.00;;;;;;;17.32;57.93;99545.67;130391;1268;108880;-83
2022/05/21 08:04:53;;;;;;;1.80;1.10;;;;;;;17.42;57.24;99548.73;130356;1268;108854;-84
2022/05/21 08:07:59;;;;;;;5.30;1.40;;;;;;;17.61;56.24;99541.26;130314;1268;108926;-82
2022/05/21 08:11:04;;;;;;;4.00;1.20;;;;;;;17.83;55.97;99544.20;130302;1268;108873;-83
2022/05/21 08:14:10;;;;;;;4.20;1.00;;;;;;;18.01;56.53;99543.59;130349;1268;108931;-81
2022/05/21 08:17:15;;;;;;;5.10;0.90;;;;;;;18.16;54.71;99538.79;130349;1268;108974;-84
2022/05/21 08:20:21;;;;;;;1.90;0.90;;;;;;;18.16;52.40;99549.04;130325;1267;108677;-83
2022/05/21 08:27:00;;;;;;;4.20;0.90;;;;;;;18.16;52.88;99549.88;130399;1268;108600;-83
2022/05/21 08:30:07;;;;;;;3.40;1.10;;;;;;;18.16;54.18;99556.52;130483;1268;108535;-81
2022/05/21 08:33:14;;;;;;;2.70;0.90;;;;;;;18.22;54.10;99559.83;130436;1268;108743;-84
2022/05/21 08:36:20;;;;;;;4.40;1.00;;;;;;;18.42;54.85;99564.27;130410;1268;108721;-81
2022/05/21 08:39:25;;;;;;;1.60;0.90;;;;;;;18.40;54.67;99561.96;130435;1268;108703;-82
2022/05/21 08:42:36;;;;;;;3.30;1.30;;;;;;;18.39;55.76;99570.62;130381;1268;108848;-83
2022/05/21 08:45:58;;;;;;;3.00;1.10;;;;;;;18.43;56.11;99570.75;130425;1268;107719;-81
2022/05/21 08:49:06;;;;;;;3.70;1.20;;;;;;;18.18;55.15;99579.88;130366;1268;108754;-83
2022/05/21 08:52:19;;;;;;;7.40;1.40;;;;;;;17.80;55.94;99584.65;130491;1267;108857;-82
2022/05/21 08:55:31;;;;;;;3.10;1.10;;;;;;;17.65;56.09;99588.63;130345;1268;108680;-84
2022/05/21 08:58:43;;;;;;;3.10;1.20;;;;;;;17.62;56.06;99595.00;130367;1267;108888;-84
2022/05/21 09:01:48;;;;;;;3.40;1.50;;;;;;;17.59;55.94;99597.74;130426;1268;108834;-83
2022/05/21 09:04:54;;;;;;;3.00;1.40;;;;;;;17.76;55.59;99590.36;130541;1268;108268;-85
2022/05/21 09:08:09;;;;;;;2.10;1.50;;;;;;;17.99;55.96;99590.73;130467;1268;108870;-84
2022/05/21 09:11:21;;;;;;;4.20;1.40;;;;;;;18.15;55.20;99585.42;130481;1268;108711;-84
2022/05/21 09:14:36;;;;;;;3.90;1.20;;;;;;;18.23;55.07;99582.35;130480;1268;108757;-82
2022/05/21 09:17:45;;;;;;;2.30;1.00;;;;;;;18.40;55.12;99588.27;130474;1268;108899;-82
2022/05/21 09:20:58;;;;;;;2.80;1.50;;;;;;;18.31;53.34;99604.22;130452;1268;108981;-84
2022/05/21 09:24:07;;;;;;;1.70;1.10;;;;;;;18.33;54.08;99601.33;130423;1268;108968;-82
2022/05/21 09:27:31;;;;;;;3.00;1.10;;;;;;;18.42;54.19;99604.97;130481;1268;108784;-84
2022/05/21 09:30:40;;;;;;;3.00;1.20;;;;;;;18.51;53.65;99604.31;130457;1268;108817;-82
2022/05/21 09:33:47;;;;;;;5.60;1.40;;;;;;;18.52;53.45;99610.54;130490;1267;108811;-84
2022/05/21 09:36:52;;;;;;;1.50;1.20;;;;;;;18.66;52.92;99616.32;130382;1268;108811;-84
2022/05/21 09:39:58;;;;;;;5.30;1.30;;;;;;;18.82;53.27;99617.80;130350;1267;108659;-84
2022/05/21 09:46:34;;;;;;;2.20;1.20;;;;;;;18.53;53.33;99630.40;130331;1268;108671;-82
2022/05/21 09:49:41;;;;;;;7.50;1.60;;;;;;;18.72;53.68;99635.92;130493;1267;108477;-82
2022/05/21 09:52:47;;;;;;;2.80;1.40;;;;;;;18.60;52.51;99644.93;130329;1267;109159;-82
2022/05/21 09:56:02;;;;;;;4.80;1.40;;;;;;;18.44;52.97;99640.35;130405;1267;108658;-85
2022/05/21 09:59:16;;;;;;;3.10;1.40;;;;;;;18.39;52.92;99648.73;130358;1267;108860;-83
2022/05/21 10:02:22;;;;;;;4.50;1.70;;;;;;;18.54;52.89;99655.77;130323;1267;108458;-83
2022/05/21 10:05:31;;;;;;;4.10;1.50;;;;;;;18.26;52.32;99653.36;130294;1267;108823;-84
2022/05/21 10:12:14;;;;;;;3.90;1.50;;;;;;;17.85;53.23;99665.89;130486;1267;108845;-85
2022/05/21 10:15:23;;;;;;;2.20;1.20;;;;;;;18.02;53.60;99670.31;130372;1267;108837;-84
2022/05/21 10:18:37;;;;;;;5.70;1.40;;;;;;;18.31;53.35;99667.59;130320;1267;108947;-82
2022/05/21 10:21:53;;;;;;;2.60;1.30;;;;;;;18.28;52.99;99679.36;130293;1267;108741;-83
2022/05/21 10:25:06;;;;;;;1.80;1.30;;;;;;;18.28;53.50;99685.84;130391;1267;108799;-82
2022/05/21 10:28:47;;;;;;;2.30;1.30;;;;;;;18.27;52.61;99696.90;130430;1267;108007;-84
2022/05/21 10:32:05;;;;;;;2.40;1.30;;;;;;;18.21;51.88;99697.77;130322;1267;108828;-82
2022/05/21 10:35:26;;;;;;;2.20;1.60;;;;;;;18.36;51.66;99690.83;130308;1268;108863;-84
2022/05/21 10:38:48;;;;;;;3.20;1.20;;;;;;;18.42;50.80;99693.81;130335;1267;108765;-85
2022/05/21 10:42:01;;;;;;;;;;;;;;;18.60;50.60;99704.33;130571;1267;108777;-82
2022/05/21 10:45:18;;;;;;;2.30;1.10;;;;;;;18.65;50.14;99702.97;130307;1267;108714;-85
2022/05/21 10:48:49;;;;;;;3.30;1.00;;;;;;;18.67;50.28;99694.34;130323;1267;109179;-83
2022/05/21 10:52:09;;;;;;;4.40;1.20;;;;;;;18.80;50.06;99702.28;130355;1267;108423;-84
2022/05/21 10:55:23;;;;;;;3.70;1.00;;;;;;;18.89;48.83;99707.46;130329;1267;108854;-84
2022/05/21 10:58:47;;;;;;;3.60;1.20;;;;;;;18.97;48.87;99704.52;130322;1267;108912;-83
2022/05/21 11:01:59;;;;;;;3.10;1.20;;;;;;;18.98;48.90;99699.97;130297;1267;108673;-82
2022/05/21 11:05:32;;;;;;;6.30;1.40;;;;;;;19.19;49.24;99720.46;130354;1267;108955;-85
2022/05/21 11:08:43;;;;;;;2.80;1.30;;;;;;;19.45;48.92;99711.42;130328;1267;108661;-85
2022/05/21 11:11:55;;;;;;;;;;;;;;;19.49;48.42;99718.03;130342;1267;108886;-84
2022/05/21 11:15:05;;;;;;;1.50;1.10;;;;;;;19.54;48.57;99722.64;130336;1267;108486;-84
2022/05/21 11:18:19;;;;;;;4.50;1.30;;;;;;;19.50;47.92;99747.83;130308;1267;108615;-83
2022/05/21 11:21:31;;;;;;;3.50;1.30;;;;;;;19.17;48.11;99735.02;130250;1267;108871;-85
2022/05/21 11:24:45;;;;;;;2.00;1.30;;;;;;;18.89;48.27;99756.02;130325;1267;108674;-82
2022/05/21 11:28:00;;;;;;;2.40;1.30;;;;;;;18.65;48.77;99752.44;130333;1267;108882;-82
2022/05/21 11:31:12;;;;;;;4.40;1.50;;;;;;;18.62;48.92;99757.35;130366;1267;109114;-84
2022/05/21 11:37:50;;;;;;;3.00;1.20;;;;;;;18.77;49.50;99763.36;130317;1267;106978;-84
2022/05/21 11:48:16;;;;;;;6.20;1.40;;;;;;;18.96;47.78;99771.45;130403;1267;108778;-83
2022/05/21 11:51:28;;;;;;;2.90;1.10;;;;;;;18.93;47.92;99775.89;130336;1268;108615;-82
2022/05/21 11:55:01;;;;;;;4.20;1.00;;;;;;;18.82;47.30;99781.35;130305;1267;108657;-83
2022/05/21 11:58:08;;;;;;;4.90;1.40;;;;;;;18.47;48.17;99782.23;130334;1267;108579;-83
2022/05/21 12:01:55;;;;;;;3.80;1.40;;;;;;;18.24;48.41;99801.20;130332;1267;108894;-83
2022/05/21 12:05:05;;;;;;;2.20;1.20;;;;;;;18.14;48.03;99803.10;130335;1268;108945;-83
2022/05/21 12:08:16;;;;;;;4.30;1.40;;;;;;;18.19;47.82;99806.63;130304;1268;108685;-82
2022/05/21 12:11:45;;;;;;;2.00;1.10;;;;;;;18.12;48.50;99815.00;130377;1268;107592;-82
2022/05/21 12:14:55;;;;;;;3.20;1.00;;;;;;;18.11;48.38;99810.77;130322;1268;108794;-82
2022/05/21 12:18:06;;;;;;;2.00;0.80;;;;;;;18.20;47.92;99817.80;130311;1268;108841;-84
2022/05/21 12:21:35;;;;;;;2.10;1.00;;;;;;;18.18;47.59;99823.30;130325;1268;108893;-81
2022/05/21 12:24:42;;;;;;;2.10;0.90;;;;;;;18.15;47.37;99824.01;130306;1268;107605;-82
2022/05/21 12:27:58;;;;;;;3.30;1.20;;;;;;;17.98;46.77;99831.50;130326;1268;108930;-84
2022/05/21 12:31:09;;;;;;;3.70;0.90;;;;;;;17.80;47.06;99840.05;130346;1268;108936;-83
2022/05/21 12:34:35;;;;;;;4.00;1.40;;;;;;;17.89;46.76;99841.69;130313;1268;108882;-82
2022/05/21 12:37:43;;;;;;;2.00;0.90;;;;;;;18.02;46.06;99843.69;130337;1267;109168;-82
2022/05/21 12:41:02;;;;;;;3.20;1.10;;;;;;;18.09;45.95;99838.56;130327;1267;108893;-84
2022/05/21 12:44:08;;;;;;;1.20;1.00;;;;;;;18.08;45.22;99848.32;130376;1268;108795;-82
2022/05/21 12:47:21;;;;;;;3.40;1.00;;;;;;;18.20;46.14;99842.34;130344;1267;108840;-84
2022/05/21 12:50:27;;;;;;;3.20;0.90;;;;;;;18.44;45.65;99836.98;130379;1267;108648;-83
2022/05/21 12:53:38;;;;;;;1.40;0.90;;;;;;;18.64;46.26;99841.53;130350;1267;108821;-84
2022/05/21 12:56:44;;;;;;;2.40;1.20;;;;;;;18.48;44.94;99843.94;130356;1267;108937;-84
2022/05/21 13:00:05;;;;;;;2.70;1.00;;;;;;;18.27;45.26;99843.81;130316;1267;108688;-84
2022/05/21 13:03:12;;;;;;;2.20;1.30;;;;;;;18.40;45.88;99832.45;130355;1268;108727;-84
2022/05/21 13:06:25;;;;;;;4.30;1.50;;;;;;;18.54;45.56;99830.32;130378;1267;108863;-82
2022/05/21 13:09:31;;;;;;;2.30;0.90;;;;;;;18.56;44.75;99833.30;130461;1267;108277;-82
2022/05/21 13:12:41;;;;;;;3.00;0.90;;;;;;;18.48;45.12;99827.98;130314;1267;108772;-83
2022/05/21 13:15:52;;;;;;;1.90;1.20;;;;;;;18.63;45.25;99813.64;130310;1267;108841;-86
2022/05/21 13:19:36;;;;;;;10.10;1.10;;;;;;;18.79;44.77;99832.48;130311;1267;108763;-85
2022/05/21 13:23:00;;;;;;;3.00;1.00;;;;;;;18.59;44.20;99829.29;130294;1267;108841;-84
2022/05/21 13:26:06;;;;;;;3.50;1.00;;;;;;;18.65;44.76;99831.71;130328;1267;108961;-84
2022/05/21 13:29:18;;;;;;;3.50;1.20;;;;;;;18.60;44.56;99837.81;130330;1266;108658;-82
2022/05/21 13:32:28;;;;;;;5.10;1.70;;;;;;;18.62;45.38;99842.95;130332;1267;108770;-82
2022/05/21 13:35:36;;;;;;;4.60;1.30;;;;;;;18.74;45.37;99840.40;130312;1266;108786;-83
2022/05/21 13:38:45;;;;;;;5.00;1.30;;;;;;;18.67;45.17;99846.17;130291;1267;108687;-82
2022/05/21 13:41:50;;;;;;;2.20;1.30;;;;;;;18.56;45.32;99850.63;130384;1267;108731;-84
2022/05/21 13:45:01;;;;;;;2.90;1.30;;;;;;;18.36;45.32;99853.96;130348;1268;108955;-83
2022/05/21 13:48:11;;;;;;;2.80;1.30;;;;;;;18.16;45.92;99861.72;130357;1267;108699;-83
2022/05/21 13:51:19;;;;;;;2.70;1.10;;;;;;;18.05;45.76;99862.79;130292;1267;108715;-82
2022/05/21 13:54:29;;;;;;;3.30;1.30;;;;;;;17.93;46.28;99862.15;130340;1267;108742;-82
2022/05/21 13:57:35;;;;;;;2.60;1.20;;;;;;;17.75;46.85;99856.58;130323;1267;108569;-84
2022/05/21 14:00:41;;;;;;;3.40;1.50;;;;;;;17.75;47.21;99861.65;130335;1267;108879;-84
2022/05/21 14:03:48;;;;;;;2.10;1.40;;;;;;;17.70;47.19;99864.65;130324;1267;108676;-83
2022/05/21 14:06:54;;;;;;;3.10;1.30;;;;;;;17.64;47.35;99869.34;130371;1267;108966;-82
2022/05/21 14:10:05;;;;;;;2.10;1.10;;;;;;;17.58;47.41;99872.92;130363;1267;108633;-84
2022/05/21 14:13:33;;;;;;;3.80;1.20;;;;;;;17.69;47.75;99865.89;130322;1267;109692;-83
2022/05/21 14:16:42;;;;;;;2.30;1.40;;;;;;;17.73;47.78;99875.92;130350;1267;108871;-84
2022/05/21 14:20:02;;;;;;;5.00;1.60;;;;;;;17.57;48.05;99881.14;130291;1267;108738;-83
2022/05/21 14:23:30;;;;;;;2.20;1.10;;;;;;;17.47;48.36;99872.64;130340;1267;108723;-83
2022/05/21 14:26:36;;;;;;;3.50;2.00;;;;;;;17.32;48.63;99879.25;130281;1267;108814;-81
2022/05/21 14:29:50;;;;;;;2.40;1.60;;;;;;;17.16;49.14;99874.44;130357;1267;108772;-83
2022/05/21 14:32:56;;;;;;;3.00;1.80;;;;;;;17.18;49.12;99865.89;130303;1267;107725;-84
2022/05/21 14:36:22;;;;;;;3.60;1.70;;;;;;;17.36;49.43;99873.13;130357;1267;108772;-83
2022/05/21 14:39:28;;;;;;;4.10;1.60;;;;;;;17.54;49.19;99874.46;130308;1267;107693;-83
2022/05/21 14:42:34;;;;;;;3.20;1.40;;;;;;;17.44;49.56;99875.29;130339;1267;108573;-82
2022/05/21 14:45:39;;;;;;;2.60;1.50;;;;;;;17.35;49.87;99882.33;130313;1267;108910;-84
2022/05/21 14:48:45;;;;;;;3.00;1.70;;;;;;;17.24;50.10;99876.52;130345;1267;108965;-82
2022/05/21 14:55:17;;;;;;;5.50;1.70;;;;;;;17.26;50.55;99879.91;130303;1267;107499;-83
2022/05/21 14:58:25;;;;;;;2.80;1.60;;;;;;;17.40;50.69;99880.84;130306;1267;108869;-83
2022/05/21 15:01:31;;;;;;;3.40;1.60;;;;;;;17.39;51.00;99882.95;130338;1267;108719;-82
2022/05/21 15:04:37;;;;;;;5.00;1.50;;;;;;;17.33;50.85;99879.02;130353;1267;108835;-82
2022/05/21 15:07:48;;;;;;;4.10;1.80;;;;;;;17.21;51.30;99879.04;130351;1267;108891;-83
2022/05/21 15:10:54;;;;;;;2.50;1.80;;;;;;;17.09;51.41;99872.57;130315;1267;108940;-83
2022/05/21 15:13:59;;;;;;;4.60;3.20;;;;;;;16.98;51.38;99869.35;130343;1267;108587;-81
2022/05/21 15:17:07;;;;;;;5.10;2.40;;;;;;;16.93;51.85;99862.74;130318;1267;108929;-82
2022/05/21 15:20:15;;;;;;;5.10;1.90;;;;;;;16.86;51.78;99857.35;130348;1267;108900;-80
2022/05/21 15:23:20;;;;;;;3.00;2.10;;;;;;;16.72;52.12;99856.44;130321;1267;108739;-81
2022/05/21 15:26:29;;;;;;;4.10;1.70;;;;;;;16.55;52.77;99857.96;130318;1267;108784;-81
2022/05/21 15:29:35;;;;;;;4.70;2.40;;;;;;;16.33;53.14;99859.63;130357;1267;107111;-82
2022/05/21 15:32:41;;;;;;;4.20;1.80;;;;;;;16.24;53.21;99863.18;130288;1267;108552;-81
2022/05/21 15:35:46;;;;;;;2.60;2.00;;;;;;;16.12;54.47;99868.84;130345;1267;108755;-81
2022/05/21 15:38:52;;;;;;;4.80;1.70;;;;;;;15.87;56.45;99880.03;130231;1267;108836;-83
2022/05/21 15:42:00;;;;;;;4.00;2.00;;;;;;;15.60;57.28;99900.34;130314;1267;108650;-82
2022/05/21 15:45:07;;;;;;;5.50;4.10;;;;;;;15.42;57.82;99899.96;130328;1267;108831;-83
2022/05/21 15:48:13;;;;;;;5.90;3.00;;;;;;;15.44;57.48;99878.15;130551;1267;107131;-83
2022/05/21 15:51:21;;;;;;;4.20;3.20;;;;;;;15.83;57.81;99866.41;130565;1267;108166;-81
2022/05/21 15:54:26;;;;;;;7.20;2.50;;;;;;;16.21;58.63;99860.15;130537;1267;108605;-84
2022/05/21 15:57:32;;;;;;;2.30;1.90;;;;;;;16.31;58.34;99847.55;130463;1267;109082;-81
2022/05/21 16:00:40;;;;;;;3.50;1.90;;;;;;;16.32;58.42;99842.30;130419;1267;108931;-83
2022/05/21 16:03:46;;;;;;;5.50;3.50;;;;;;;16.31;58.27;99833.51;130571;1267;108977;-84
2022/05/21 16:06:51;;;;;;;9.10;6.40;;;;;;;16.27;58.41;99819.24;130571;1267;107584;-83
2022/05/21 16:09:57;;;;;;;5.00;2.70;;;;;;;16.23;58.46;99814.96;130430;1267;108763;-81
2022/05/21 16:13:05;;;;;;;2.30;1.90;;;;;;;16.23;58.68;99808.25;130436;1267;108950;-83
2022/05/21 16:16:11;;;;;;;2.60;1.60;;;;;;;16.25;58.56;99810.76;130445;1267;107927;-81
2022/05/21 16:19:17;;;;;;;2.60;1.80;;;;;;;16.23;58.85;99817.08;130489;1267;108751;-82
2022/05/21 16:22:26;;;;;;;3.40;1.80;;;;;;;16.22;58.95;99819.18;130487;1267;108783;-81
2022/05/21 16:25:32;;;;;;;2.90;2.20;;;;;;;16.16;59.11;99816.47;130512;1267;108659;-83
2022/05/21 16:28:40;;;;;;;1.90;1.30;;;;;;;16.09;59.68;99820.38;130470;1267;108717;-82
2022/05/21 16:31:45;;;;;;;2.50;1.70;;;;;;;15.99;59.89;99814.36;130482;1268;108761;-83
2022/05/21 16:34:52;;;;;;;2.20;1.30;;;;;;;15.92;60.12;99816.10;130422;1267;108898;-82
2022/05/21 16:37:57;;;;;;;1.80;1.30;;;;;;;15.88;59.73;99808.21;130462;1267;107254;-81
2022/05/21 16:41:02;;;;;;;3.10;1.80;;;;;;;15.96;59.57;99805.60;130418;1267;108706;-82
2022/05/21 16:44:08;;;;;;;2.30;1.40;;;;;;;15.96;59.89;99797.54;130426;1267;108939;-82
2022/05/21 16:47:14;;;;;;;2.50;1.60;;;;;;;15.89;60.93;99795.70;130441;1267;106940;-81
2022/05/21 16:50:20;;;;;;;4.00;2.00;;;;;;;15.74;61.01;99789.89;130413;1267;108675;-82
2022/05/21 16:53:25;;;;;;;2.60;1.70;;;;;;;15.73;60.40;99787.05;130464;1267;107707;-81
2022/05/21 16:56:31;;;;;;;2.90;1.90;;;;;;;15.73;61.13;99790.20;130517;1267;108695;-82
2022/05/21 16:59:36;;;;;;;4.70;1.90;;;;;;;15.67;60.52;99785.89;130517;1267;108760;-82
2022/05/21 17:02:42;;;;;;;2.20;1.60;;;;;;;15.67;60.87;99777.19;130514;1268;108483;-81
2022/05/21 17:05:47;;;;;;;2.80;1.60;;;;;;;15.73;60.79;99777.88;130522;1267;108731;-81
2022/05/21 17:08:53;;;;;;;3.50;1.90;;;;;;;15.78;60.63;99780.48;130364;1267;217783;-82
2022/05/21 17:11:59;;;;;;;3.00;1.60;;;;;;;15.81;60.53;99785.38;130422;1267;107757;-80
2022/05/21 17:15:05;;;;;;;3.40;1.90;;;;;;;15.84;60.88;99783.25;130386;1268;109112;-82
2022/05/21 17:18:11;;;;;;;2.40;2.00;;;;;;;15.79;60.88;99777.63;130430;1267;108678;-84
2022/05/21 17:21:17;;;;;;;2.50;1.90;;;;;;;15.70;61.14;99768.52;130470;1267;107682;-81
2022/05/21 17:24:22;;;;;;;2.20;1.60;;;;;;;15.66;61.29;99766.39;130566;1267;108645;-83
2022/05/21 17:30:51;;;;;;;3.50;1.90;;;;;;;15.66;61.17;99775.70;130482;1268;108748;-82
2022/05/21 17:33:57;;;;;;;2.60;1.90;;;;;;;15.65;61.28;99780.25;130453;1267;107638;-82
2022/05/21 17:37:03;;;;;;;3.50;2.00;;;;;;;15.60;61.25;99781.09;130431;1267;108882;-80
2022/05/21 17:40:12;;;;;;;5.10;2.40;;;;;;;15.51;61.43;99792.48;130374;1267;108791;-80
2022/05/21 17:43:18;;;;;;;1.90;1.60;;;;;;;15.41;61.62;99793.62;130482;1267;109054;-81
2022/05/21 17:46:24;;;;;;;3.60;1.80;;;;;;;15.35;61.80;99794.36;130429;1267;108662;-82
2022/05/21 17:49:29;;;;;;;5.40;2.40;;;;;;;15.31;61.87;99788.63;130295;1268;108699;-81
2022/05/21 17:52:35;;;;;;;4.90;3.10;;;;;;;15.31;61.97;99783.21;130323;1268;108921;-81
2022/05/21 17:55:41;;;;;;;4.80;3.60;;;;;;;15.32;61.84;99779.45;130409;1267;108834;-80
2022/05/21 17:58:46;;;;;;;4.40;2.80;;;;;;;15.36;62.12;99778.15;130459;1267;108746;-82
2022/05/21 18:01:52;;;;;;;4.10;2.30;;;;;;;15.35;61.87;99775.05;130346;1268;108937;-80
2022/05/21 18:04:58;;;;;;;4.50;2.40;;;;;;;15.33;62.16;99767.22;130350;1268;108948;-80
2022/05/21 18:08:04;;;;;;;4.20;2.50;;;;;;;15.29;62.37;99770.66;130388;1268;108787;-81
2022/05/21 18:11:11;;;;;;;4.00;2.40;;;;;;;15.28;62.30;99769.65;130378;1267;108717;-82
2022/05/21 18:14:16;;;;;;;3.30;2.30;;;;;;;15.22;63.21;99774.80;130359;1266;108994;-83
2022/05/21 18:20:45;;;;;;;3.00;2.30;;;;;;;15.00;63.12;99776.06;130532;1268;108760;-80
2022/05/21 18:23:50;;;;;;;4.90;2.40;;;;;;;14.97;63.24;99774.13;130449;1268;109079;-80
2022/05/21 18:26:58;;;;;;;11.80;7.30;;;;;;;14.88;63.90;99774.30;130465;1268;107670;-82
2022/05/21 18:30:11;;;;;;;3.70;2.30;;;;;;;14.72;63.76;99776.83;130359;1268;108937;-81
2022/05/21 18:33:19;;;;;;;3.60;2.00;;;;;;;14.64;63.70;99776.27;130341;1267;108659;-81
2022/05/21 18:36:24;;;;;;;3.90;2.50;;;;;;;14.50;64.23;99785.66;130329;1267;108701;-82
2022/05/21 18:39:30;;;;;;;2.40;1.80;;;;;;;14.30;64.60;99788.40;130409;1268;108946;-82
2022/05/21 18:42:36;;;;;;;2.50;1.80;;;;;;;14.19;64.37;99788.75;130407;1267;107781;-81
2022/05/21 18:45:44;;;;;;;3.50;2.60;;;;;;;14.10;64.74;99786.04;130447;1268;108780;-82
2022/05/21 18:48:50;;;;;;;9.90;5.10;;;;;;;13.90;66.56;99791.56;130482;1267;108714;-81
2022/05/21 18:51:57;;;;;;;4.00;2.50;;;;;;;13.71;66.36;99786.23;130416;1267;109055;-82
2022/05/21 18:55:03;;;;;;;6.90;3.60;;;;;;;13.63;66.95;99790.11;130446;1267;107704;-81
2022/05/21 18:58:11;;;;;;;4.70;3.30;;;;;;;13.62;66.79;99791.34;130410;1267;108758;-82
2022/05/21 19:01:19;;;;;;;4.80;2.70;;;;;;;13.57;66.52;99790.78;130463;1267;108940;-82
2022/05/21 19:04:25;;;;;;;3.40;2.30;;;;;;;13.55;66.29;99794.66;130464;1268;108901;-82
2022/05/21 19:07:31;;;;;;;3.90;2.40;;;;;;;13.54;66.30;99793.84;130470;1267;109431;-82
2022/05/21 19:10:37;;;;;;;4.40;2.10;;;;;;;13.60;66.24;99793.13;130453;1267;108905;-81
2022/05/21 19:13:44;;;;;;;3.00;2.00;;;;;;;13.68;66.00;99793.08;130485;1267;108906;-83
2022/05/21 19:16:50;;;;;;;4.40;2.00;;;;;;;13.71;66.72;99793.41;130432;1267;107660;-82
2022/05/21 19:19:56;;;;;;;2.70;2.10;;;;;;;13.71;66.48;99794.65;130512;1267;108872;-83
2022/05/21 19:23:01;;;;;;;3.10;2.10;;;;;;;13.70;66.26;99793.23;130472;1267;108766;-82
2022/05/21 19:26:06;;;;;;;2.80;1.60;;;;;;;13.73;66.26;99795.52;130458;1267;108767;-83
2022/05/21 19:29:13;;;;;;;2.30;1.50;;;;;;;13.72;66.49;99801.02;130454;1267;108669;-82
2022/05/21 19:32:20;;;;;;;3.70;1.80;;;;;;;13.68;66.31;99804.81;130466;1267;108711;-82
2022/05/21 19:35:25;;;;;;;2.40;1.70;;;;;;;13.68;66.44;99799.81;130295;1267;108672;-83
2022/05/21 19:38:32;;;;;;;3.00;2.20;;;;;;;13.66;66.66;99800.44;130415;1267;108649;-83
2022/05/21 19:41:37;;;;;;;2.70;2.10;;;;;;;13.62;66.65;99798.35;130470;1267;108886;-82
2022/05/21 19:44:44;;;;;;;2.20;1.90;;;;;;;13.53;66.69;99802.88;130444;1267;109523;-81
2022/05/21 19:47:49;;;;;;;4.10;2.80;;;;;;;13.39;67.87;99803.50;130410;1267;108783;-81
2022/05/21 19:50:54;;;;;;;3.50;2.60;;;;;;;13.26;67.04;99801.08;130402;1267;108747;-82
2022/05/21 19:54:00;;;;;;;2.60;1.80;;;;;;;13.18;67.26;99800.04;130422;1267;108627;-83
2022/05/21 19:57:07;;;;;;;2.50;2.00;;;;;;;13.10;68.07;99799.71;130427;1267;107248;-82